Aviation Digital Data Service (ADDS)

Output produced by METARs form (0959 UTC 19 November 2018)
found at http://www.aviationweather.gov/metar/data/
 
RJFT 190900Z 06004KT 9999 FEW030 SCT060 10/10 Q1019
TAF AMD RJFT 190647Z 1906/2012 31007KT 9999 FEW030 
     BECMG 1907/1909 05010KT 
     BECMG 2000/2003 30005KT 
     BECMG 2009/2012 06003KT